This is the latest recevied weather packets stored in our database for station/object AB2HM. If no packets are shown the sender has not sent any weather packets the latest 1 day(s).
| Time | Temp. | Humidity | Pressure | Rain* | Wind** | Luminosity | Snow |
|---|---|---|---|---|---|---|---|
| 1778005058 | 28.89° C | 30% | 1011 hPa | 0 mm | 0.45 m/s, 163° | - | - |
| 1778003250 | 28.89° C | 33% | 1011.3 hPa | 0 mm | 0.45 m/s, 150° | - | - |
| 1778001437 | 28.33° C | 33% | 1011.6 hPa | 0 mm | 0 m/s | - | - |
| 1777999634 | 27.78° C | 36% | 1011.9 hPa | 0 mm | 0 m/s | - | - |
| 1777997829 | 27.78° C | 36% | 1012 hPa | 0 mm | 0 m/s | - | - |
| 1777996014 | 26.11° C | 40% | 1012.4 hPa | 0 mm | 0 m/s | - | - |
| 1777994213 | 25.56° C | 42% | 1012.6 hPa | 0 mm | 0 m/s | - | - |
| 1777992414 | 24.44° C | 45% | 1012.5 hPa | 0 mm | 0 m/s | - | - |
| 1777990616 | 23.33° C | 46% | 1012.9 hPa | 0 mm | 0 m/s | - | - |
| 1777988804 | 22.22° C | 49% | 1012.9 hPa | 0 mm | 0 m/s | - | - |
| 1777987002 | 21.11° C | 53% | 1013.1 hPa | 0 mm | 0 m/s | - | - |
| 1777985205 | 20° C | 56% | 1012.8 hPa | 0 mm | 0 m/s | - | - |
| 1777983394 | 19.44° C | 59% | 1012.8 hPa | 0 mm | 0 m/s | - | - |
| 1777981593 | 18.33° C | 64% | 1012.6 hPa | 0 mm | 0 m/s | - | - |
| 1777979791 | 16.67° C | 69% | 1012.4 hPa | 0 mm | 0 m/s | - | - |
| 1777977989 | 16.67° C | 73% | 1012.2 hPa | 0 mm | 0 m/s | - | - |
| 1777976185 | 16.67° C | 75% | 1012.1 hPa | 0 mm | 0 m/s | - | - |
| 1777974383 | 17.22° C | 73% | 1012 hPa | 0 mm | 0 m/s | - | - |
| 1777972578 | 17.22° C | 70% | 1012 hPa | 0 mm | 0 m/s | - | - |
| 1777970774 | 17.78° C | 70% | 1012 hPa | 0 mm | 0 m/s | - | - |
| 1777968974 | 17.78° C | 69% | 1012.1 hPa | 0 mm | 0 m/s | - | - |
| 1777967168 | 17.22° C | 69% | 1011.9 hPa | 0 mm | 0 m/s | - | - |
| 1777965361 | 16.67° C | 70% | 1011.8 hPa | 0 mm | 0 m/s | - | - |
| 1777963559 | 16.67° C | 70% | 1011.8 hPa | 0 mm | 0 m/s | - | - |
* Rain latest hour (hover to see other rain measurements)
** Current wind speed in m/s (hover to see current wind gust speed)